GSVT2: Red River, Gainesville, TX

                                SHEF ID:       GSVT2     Red River near Gainesville, TX
STATION TYPE:
Regulating: Stage = 25.00, Flow = 54054

PRECIP STAGE RIV-FLOW BAT-LOAD
in ft cfs volt
Ccp-Rev Ccp-Rev Ccp-Rev Ccp-Rev
(America/Chicago)
05/04 00:00 0.00 6.04 1023 12.49
05/04 01:00 0.00 6.04 1023 12.41
05/04 02:00 0.00 6.03 1016 12.41
05/04 03:00 0.00 6.01 1003 12.41
05/04 04:00 0.00 6.00 996 12.41
05/04 05:00 0.00 5.99 990 12.41
05/04 06:00 0.00 5.97 976 12.41
05/04 07:00 0.00 5.96 970 12.41
05/04 08:00 0.00 5.94 956 12.57
05/04 09:00 0.00 5.92 943 13.13
05/04 10:00 0.00 5.89 924 13.29
05/04 11:00 0.00 5.83 886 13.29
05/04 12:00 0.00 5.83 886 13.44
05/04 13:00 0.00 5.82 880 13.37
05/04 14:00 0.00 5.78 856 13.37
05/04 15:00 0.00 5.74 828 13.29
05/04 16:00 0.00 5.74 828 13.29
05/04 17:00 0.00 5.76 842 13.21
05/04 18:00 0.00 5.75 835 13.21
05/04 19:00 0.00 5.75 835 13.21
05/04 20:00 0.00 5.74 828 13.13
05/04 21:00 0.00 5.75 835 12.73
05/04 22:00 0.00 5.72 814 12.57
05/04 23:00 0.00 5.74 828 12.49
Data processed at Tue 05May2026 04:32 GMT

NOTICE: If you are parsing this page

Please convert to using our Data API. Starting early 2026 we will be migrating to: https://water.usace.army.mil with modern pages rendered in JavaScript. When this migration completes you will no longer be able to scrape this page! CWMSDataAPI (CDA)

Timeseries IDs (TSIDs)

TSIDs used from left to right in the data table
GAIN.Precip-Inc.Total.1Hour.1Hour.Ccp-Rev
GAIN.Stage.Inst.1Hour.0.Ccp-Rev
GAIN.Flow.Inst.1Hour.0.Ccp-Rev
GAIN.Volt-Battery Load.Inst.1Hour.0.Ccp-Rev

                            

All information presented herein is the property of the government of the United States of America and may be revised or deleted at any time without prior notice. Dissemination of this information without the expressed written consent of the Public Affairs Office, Tulsa District U.S. Army Corps of Engineers is strictly prohibited. These data are gathered electronically and, as presented, have NOT undergone any form of quality control. These data are NOT guaranteed to be valid or correct.